sensor_id;sensor_type;location;lat;lon;timestamp;pressure;altitude;pressure_sealevel;temperature;humidity
4346;BME280;2186;49.866;7.986;2022-07-05T00:01:17;100553.31;;;16.86;78.83
4346;BME280;2186;49.866;7.986;2022-07-05T00:03:44;100558.41;;;16.73;80.06
4346;BME280;2186;49.866;7.986;2022-07-05T00:06:10;100561.31;;;16.50;81.02
4346;BME280;2186;49.866;7.986;2022-07-05T00:08:37;100563.84;;;16.72;80.30
4346;BME280;2186;49.866;7.986;2022-07-05T00:11:04;100566.44;;;16.54;81.08
4346;BME280;2186;49.866;7.986;2022-07-05T00:13:30;100562.31;;;16.66;80.56
4346;BME280;2186;49.866;7.986;2022-07-05T00:15:57;100569.84;;;16.58;80.95
4346;BME280;2186;49.866;7.986;2022-07-05T00:18:23;100564.06;;;16.48;81.04
4346;BME280;2186;49.866;7.986;2022-07-05T00:20:50;100565.09;;;16.46;81.84
4346;BME280;2186;49.866;7.986;2022-07-05T00:23:16;100560.00;;;16.40;82.12
4346;BME280;2186;49.866;7.986;2022-07-05T00:25:43;100563.94;;;16.33;82.74
4346;BME280;2186;49.866;7.986;2022-07-05T00:28:09;100561.97;;;16.36;83.01
4346;BME280;2186;49.866;7.986;2022-07-05T00:30:37;100559.94;;;16.41;82.41
4346;BME280;2186;49.866;7.986;2022-07-05T00:33:04;100563.66;;;16.20;83.32
4346;BME280;2186;49.866;7.986;2022-07-05T00:35:30;100556.91;;;16.30;83.55
4346;BME280;2186;49.866;7.986;2022-07-05T00:37:56;100559.22;;;16.38;82.55
4346;BME280;2186;49.866;7.986;2022-07-05T00:40:23;100558.19;;;16.40;82.97
4346;BME280;2186;49.866;7.986;2022-07-05T00:42:49;100563.75;;;16.54;82.13
4346;BME280;2186;49.866;7.986;2022-07-05T00:45:16;100562.88;;;16.18;83.14
4346;BME280;2186;49.866;7.986;2022-07-05T00:47:42;100557.84;;;16.10;83.97
4346;BME280;2186;49.866;7.986;2022-07-05T00:50:09;100559.75;;;16.08;83.97
4346;BME280;2186;49.866;7.986;2022-07-05T00:52:36;100566.91;;;16.08;83.75
4346;BME280;2186;49.866;7.986;2022-07-05T00:55:02;100570.03;;;16.17;83.28
4346;BME280;2186;49.866;7.986;2022-07-05T00:57:30;100570.16;;;16.14;83.37
4346;BME280;2186;49.866;7.986;2022-07-05T00:59:57;100569.91;;;16.20;83.33
4346;BME280;2186;49.866;7.986;2022-07-05T01:02:23;100568.91;;;16.03;84.01
4346;BME280;2186;49.866;7.986;2022-07-05T01:04:50;100563.53;;;16.04;84.11
4346;BME280;2186;49.866;7.986;2022-07-05T01:07:22;100568.88;;;16.04;84.32
4346;BME280;2186;49.866;7.986;2022-07-05T01:09:49;100567.09;;;16.03;84.19
4346;BME280;2186;49.866;7.986;2022-07-05T01:12:16;100571.91;;;15.96;84.36
4346;BME280;2186;49.866;7.986;2022-07-05T01:14:43;100566.69;;;16.12;83.48
4346;BME280;2186;49.866;7.986;2022-07-05T01:17:11;100567.47;;;15.95;84.61
4346;BME280;2186;49.866;7.986;2022-07-05T01:19:38;100570.16;;;16.14;84.38
4346;BME280;2186;49.866;7.986;2022-07-05T01:22:12;100571.03;;;16.15;83.67
4346;BME280;2186;49.866;7.986;2022-07-05T01:24:42;100566.78;;;15.72;86.03
4346;BME280;2186;49.866;7.986;2022-07-05T01:27:09;100578.31;;;15.74;85.53
4346;BME280;2186;49.866;7.986;2022-07-05T01:29:35;100578.22;;;15.75;85.88
4346;BME280;2186;49.866;7.986;2022-07-05T01:32:02;100571.22;;;15.73;85.71
4346;BME280;2186;49.866;7.986;2022-07-05T01:34:29;100574.56;;;15.78;85.81
4346;BME280;2186;49.866;7.986;2022-07-05T01:36:55;100576.25;;;15.60;86.05
4346;BME280;2186;49.866;7.986;2022-07-05T01:39:22;100576.06;;;15.64;86.08
4346;BME280;2186;49.866;7.986;2022-07-05T01:41:48;100576.34;;;15.57;86.79
4346;BME280;2186;49.866;7.986;2022-07-05T01:44:15;100578.31;;;15.53;86.76
4346;BME280;2186;49.866;7.986;2022-07-05T01:46:42;100572.88;;;15.34;87.77
4346;BME280;2186;49.866;7.986;2022-07-05T01:49:12;100569.16;;;15.38;87.56
4346;BME280;2186;49.866;7.986;2022-07-05T01:52:02;100569.28;;;15.35;87.45
4346;BME280;2186;49.866;7.986;2022-07-05T01:54:33;100563.97;;;15.34;88.21
4346;BME280;2186;49.866;7.986;2022-07-05T01:57:00;100571.53;;;15.45;88.27
4346;BME280;2186;49.866;7.986;2022-07-05T01:59:27;100574.69;;;15.34;87.71
4346;BME280;2186;49.866;7.986;2022-07-05T02:01:54;100568.84;;;15.45;87.50
4346;BME280;2186;49.866;7.986;2022-07-05T02:04:20;100575.31;;;15.40;87.98
4346;BME280;2186;49.866;7.986;2022-07-05T02:06:47;100582.19;;;15.46;87.60
4346;BME280;2186;49.866;7.986;2022-07-05T02:09:14;100572.94;;;15.53;87.70
4346;BME280;2186;49.866;7.986;2022-07-05T02:11:40;100581.41;;;15.64;86.42
4346;BME280;2186;49.866;7.986;2022-07-05T02:14:07;100571.47;;;15.46;87.23
4346;BME280;2186;49.866;7.986;2022-07-05T02:16:33;100570.75;;;15.43;87.64
4346;BME280;2186;49.866;7.986;2022-07-05T02:19:00;100576.03;;;15.24;88.44
4346;BME280;2186;49.866;7.986;2022-07-05T02:21:26;100577.34;;;15.34;88.15
4346;BME280;2186;49.866;7.986;2022-07-05T02:23:53;100575.41;;;15.17;88.92
4346;BME280;2186;49.866;7.986;2022-07-05T02:26:20;100573.16;;;15.08;89.03
4346;BME280;2186;49.866;7.986;2022-07-05T02:28:46;100572.72;;;14.97;89.89
4346;BME280;2186;49.866;7.986;2022-07-05T02:31:13;100576.13;;;15.00;89.40
4346;BME280;2186;49.866;7.986;2022-07-05T02:33:41;100571.38;;;15.07;89.85
4346;BME280;2186;49.866;7.986;2022-07-05T02:36:09;100577.75;;;15.04;89.52
4346;BME280;2186;49.866;7.986;2022-07-05T02:38:36;100570.66;;;15.03;89.17
4346;BME280;2186;49.866;7.986;2022-07-05T02:41:07;100581.28;;;15.05;89.31
4346;BME280;2186;49.866;7.986;2022-07-05T02:43:34;100571.44;;;15.05;89.23
4346;BME280;2186;49.866;7.986;2022-07-05T02:46:02;100570.50;;;15.06;88.99
4346;BME280;2186;49.866;7.986;2022-07-05T02:48:30;100582.56;;;14.96;89.98
4346;BME280;2186;49.866;7.986;2022-07-05T02:50:56;100582.94;;;15.09;89.14
4346;BME280;2186;49.866;7.986;2022-07-05T02:53:23;100584.72;;;15.08;89.24
4346;BME280;2186;49.866;7.986;2022-07-05T02:55:50;100590.88;;;15.10;88.93
4346;BME280;2186;49.866;7.986;2022-07-05T02:58:16;100582.28;;;15.02;88.93
4346;BME280;2186;49.866;7.986;2022-07-05T03:00:44;100590.38;;;14.80;89.85
4346;BME280;2186;49.866;7.986;2022-07-05T03:03:11;100578.34;;;14.69;90.68
4346;BME280;2186;49.866;7.986;2022-07-05T03:05:37;100589.28;;;14.63;91.06
4346;BME280;2186;49.866;7.986;2022-07-05T03:08:04;100589.22;;;14.64;91.14
4346;BME280;2186;49.866;7.986;2022-07-05T03:10:31;100598.13;;;14.65;91.13
4346;BME280;2186;49.866;7.986;2022-07-05T03:12:57;100600.00;;;14.63;91.27
4346;BME280;2186;49.866;7.986;2022-07-05T03:15:24;100591.03;;;14.64;90.80
4346;BME280;2186;49.866;7.986;2022-07-05T03:17:50;100591.06;;;14.40;91.66
4346;BME280;2186;49.866;7.986;2022-07-05T03:20:17;100598.06;;;14.44;91.80
4346;BME280;2186;49.866;7.986;2022-07-05T03:22:44;100599.25;;;14.59;90.79
4346;BME280;2186;49.866;7.986;2022-07-05T03:25:11;100601.94;;;14.59;91.34
4346;BME280;2186;49.866;7.986;2022-07-05T03:27:37;100599.69;;;14.48;91.68
4346;BME280;2186;49.866;7.986;2022-07-05T03:30:04;100600.47;;;14.50;90.77
4346;BME280;2186;49.866;7.986;2022-07-05T03:32:31;100594.91;;;14.33;91.89
4346;BME280;2186;49.866;7.986;2022-07-05T03:34:57;100599.25;;;14.59;91.20
4346;BME280;2186;49.866;7.986;2022-07-05T03:37:23;100602.78;;;14.36;92.72
4346;BME280;2186;49.866;7.986;2022-07-05T03:39:50;100604.72;;;14.33;92.90
4346;BME280;2186;49.866;7.986;2022-07-05T03:42:16;100613.31;;;14.64;91.48
4346;BME280;2186;49.866;7.986;2022-07-05T03:44:43;100604.72;;;14.33;92.68
4346;BME280;2186;49.866;7.986;2022-07-05T03:47:09;100610.69;;;14.63;91.77
4346;BME280;2186;49.866;7.986;2022-07-05T03:49:35;100602.81;;;14.60;91.84
4346;BME280;2186;49.866;7.986;2022-07-05T03:52:02;100608.41;;;14.75;91.10
4346;BME280;2186;49.866;7.986;2022-07-05T03:54:28;100610.00;;;14.79;90.87
4346;BME280;2186;49.866;7.986;2022-07-05T03:56:55;100613.88;;;14.72;91.87
4346;BME280;2186;49.866;7.986;2022-07-05T03:59:21;100604.72;;;15.20;90.24
4346;BME280;2186;49.866;7.986;2022-07-05T04:01:48;100613.06;;;14.92;90.05
4346;BME280;2186;49.866;7.986;2022-07-05T04:04:14;100615.66;;;14.94;90.53
4346;BME280;2186;49.866;7.986;2022-07-05T04:06:41;100615.22;;;15.04;89.93
4346;BME280;2186;49.866;7.986;2022-07-05T04:09:07;100608.41;;;14.97;90.48
4346;BME280;2186;49.866;7.986;2022-07-05T04:11:34;100617.97;;;15.03;91.02
4346;BME280;2186;49.866;7.986;2022-07-05T04:14:00;100621.53;;;15.03;90.70
4346;BME280;2186;49.866;7.986;2022-07-05T04:16:26;100620.50;;;15.28;90.38
4346;BME280;2186;49.866;7.986;2022-07-05T04:18:53;100626.72;;;15.28;90.39
4346;BME280;2186;49.866;7.986;2022-07-05T04:21:19;100618.69;;;15.28;90.37
4346;BME280;2186;49.866;7.986;2022-07-05T04:23:46;100624.91;;;15.29;90.37
4346;BME280;2186;49.866;7.986;2022-07-05T04:26:12;100626.34;;;15.37;90.22
4346;BME280;2186;49.866;7.986;2022-07-05T04:28:38;100629.53;;;15.46;89.86
4346;BME280;2186;49.866;7.986;2022-07-05T04:31:05;100633.38;;;15.60;89.00
4346;BME280;2186;49.866;7.986;2022-07-05T04:33:32;100637.16;;;16.53;86.24
4346;BME280;2186;49.866;7.986;2022-07-05T04:35:58;100624.63;;;16.92;83.97
4346;BME280;2186;49.866;7.986;2022-07-05T04:38:24;100623.88;;;17.59;80.88
4346;BME280;2186;49.866;7.986;2022-07-05T04:40:51;100631.25;;;18.23;78.12
4346;BME280;2186;49.866;7.986;2022-07-05T04:43:17;100635.31;;;18.79;75.27
4346;BME280;2186;49.866;7.986;2022-07-05T04:45:44;100629.91;;;18.94;73.67
4346;BME280;2186;49.866;7.986;2022-07-05T04:48:11;100624.91;;;19.18;72.78
4346;BME280;2186;49.866;7.986;2022-07-05T04:50:37;100630.13;;;19.51;72.08
4346;BME280;2186;49.866;7.986;2022-07-05T04:53:04;100631.63;;;19.71;71.53
4346;BME280;2186;49.866;7.986;2022-07-05T04:55:30;100639.66;;;19.87;70.06
4346;BME280;2186;49.866;7.986;2022-07-05T04:57:57;100634.78;;;20.08;69.62
4346;BME280;2186;49.866;7.986;2022-07-05T05:00:23;100638.94;;;20.42;68.86
4346;BME280;2186;49.866;7.986;2022-07-05T05:02:50;100635.19;;;20.45;68.79
4346;BME280;2186;49.866;7.986;2022-07-05T05:05:16;100639.41;;;20.49;68.79
4346;BME280;2186;49.866;7.986;2022-07-05T05:07:44;100647.81;;;20.44;69.19
4346;BME280;2186;49.866;7.986;2022-07-05T05:10:11;100646.16;;;21.38;64.78
4346;BME280;2186;49.866;7.986;2022-07-05T05:12:37;100638.44;;;21.32;65.71
4346;BME280;2186;49.866;7.986;2022-07-05T05:15:04;100643.19;;;21.28;65.66
4346;BME280;2186;49.866;7.986;2022-07-05T05:17:36;100652.44;;;21.51;64.84
4346;BME280;2186;49.866;7.986;2022-07-05T05:20:05;100645.53;;;21.60;64.09
4346;BME280;2186;49.866;7.986;2022-07-05T05:22:32;100641.88;;;21.74;63.74
4346;BME280;2186;49.866;7.986;2022-07-05T05:24:58;100649.59;;;22.05;62.60
4346;BME280;2186;49.866;7.986;2022-07-05T05:27:25;100652.06;;;21.83;63.26
4346;BME280;2186;49.866;7.986;2022-07-05T05:29:51;100654.03;;;22.06;61.96
4346;BME280;2186;49.866;7.986;2022-07-05T05:32:18;100655.94;;;21.66;63.14
4346;BME280;2186;49.866;7.986;2022-07-05T05:34:44;100656.34;;;21.60;63.24
4346;BME280;2186;49.866;7.986;2022-07-05T05:37:11;100658.44;;;21.69;63.29
4346;BME280;2186;49.866;7.986;2022-07-05T05:39:37;100663.69;;;21.45;64.14
4346;BME280;2186;49.866;7.986;2022-07-05T05:42:04;100661.38;;;22.04;62.53
4346;BME280;2186;49.866;7.986;2022-07-05T05:44:31;100670.69;;;21.35;64.18
4346;BME280;2186;49.866;7.986;2022-07-05T05:46:57;100672.19;;;21.92;63.07
4346;BME280;2186;49.866;7.986;2022-07-05T05:49:24;100661.53;;;22.41;60.96
4346;BME280;2186;49.866;7.986;2022-07-05T05:51:50;100670.25;;;22.70;59.49
4346;BME280;2186;49.866;7.986;2022-07-05T05:54:17;100675.50;;;22.35;60.59
4346;BME280;2186;49.866;7.986;2022-07-05T05:56:44;100669.59;;;22.66;59.69
4346;BME280;2186;49.866;7.986;2022-07-05T05:59:10;100675.50;;;22.35;60.72
4346;BME280;2186;49.866;7.986;2022-07-05T06:01:36;100676.84;;;23.39;57.69
4346;BME280;2186;49.866;7.986;2022-07-05T06:04:03;100676.75;;;23.41;57.78
4346;BME280;2186;49.866;7.986;2022-07-05T06:06:29;100675.16;;;23.62;58.21
4346;BME280;2186;49.866;7.986;2022-07-05T06:08:56;100680.03;;;23.09;58.69
4346;BME280;2186;49.866;7.986;2022-07-05T06:11:22;100672.97;;;23.54;57.18
4346;BME280;2186;49.866;7.986;2022-07-05T06:13:49;100679.22;;;23.68;57.50
4346;BME280;2186;49.866;7.986;2022-07-05T06:16:15;100679.09;;;23.69;56.93
4346;BME280;2186;49.866;7.986;2022-07-05T06:18:42;100683.09;;;23.76;55.84
4346;BME280;2186;49.866;7.986;2022-07-05T06:21:08;100682.03;;;23.90;56.74
4346;BME280;2186;49.866;7.986;2022-07-05T06:23:35;100684.78;;;24.23;53.64
4346;BME280;2186;49.866;7.986;2022-07-05T06:26:01;100683.75;;;23.91;55.14
4346;BME280;2186;49.866;7.986;2022-07-05T06:28:28;100687.84;;;24.08;54.47
4346;BME280;2186;49.866;7.986;2022-07-05T06:30:54;100694.16;;;24.08;54.70
4346;BME280;2186;49.866;7.986;2022-07-05T06:33:21;100688.59;;;24.10;54.67
4346;BME280;2186;49.866;7.986;2022-07-05T06:35:47;100685.03;;;24.20;54.33
4346;BME280;2186;49.866;7.986;2022-07-05T06:38:13;100689.44;;;24.57;53.89
4346;BME280;2186;49.866;7.986;2022-07-05T06:40:41;100685.59;;;24.59;53.42
4346;BME280;2186;49.866;7.986;2022-07-05T06:43:10;100682.75;;;24.49;52.71
4346;BME280;2186;49.866;7.986;2022-07-05T06:45:36;100683.97;;;24.79;51.66
4346;BME280;2186;49.866;7.986;2022-07-05T06:48:10;100690.03;;;24.83;51.79
4346;BME280;2186;49.866;7.986;2022-07-05T06:50:39;100684.09;;;24.66;53.15
4346;BME280;2186;49.866;7.986;2022-07-05T06:53:06;100681.44;;;25.21;51.89
4346;BME280;2186;49.866;7.986;2022-07-05T06:55:34;100690.00;;;24.94;52.22
4346;BME280;2186;49.866;7.986;2022-07-05T06:58:04;100696.94;;;24.87;52.70
4346;BME280;2186;49.866;7.986;2022-07-05T07:00:40;100692.63;;;24.95;52.38
4346;BME280;2186;49.866;7.986;2022-07-05T07:03:27;100685.94;;;24.77;53.20
4346;BME280;2186;49.866;7.986;2022-07-05T07:06:14;100685.66;;;25.25;51.64
4346;BME280;2186;49.866;7.986;2022-07-05T07:08:42;100683.06;;;25.55;51.21
4346;BME280;2186;49.866;7.986;2022-07-05T07:11:27;100690.19;;;25.67;51.42
4346;BME280;2186;49.866;7.986;2022-07-05T07:13:53;100693.00;;;25.45;51.39
4346;BME280;2186;49.866;7.986;2022-07-05T07:16:20;100688.19;;;25.81;51.16
4346;BME280;2186;49.866;7.986;2022-07-05T07:18:46;100690.56;;;25.31;50.96
4346;BME280;2186;49.866;7.986;2022-07-05T07:21:33;100694.56;;;25.27;52.68
4346;BME280;2186;49.866;7.986;2022-07-05T07:24:00;100696.50;;;25.36;51.69
4346;BME280;2186;49.866;7.986;2022-07-05T07:26:27;100696.81;;;25.54;50.65
4346;BME280;2186;49.866;7.986;2022-07-05T07:28:53;100691.28;;;25.01;51.49
4346;BME280;2186;49.866;7.986;2022-07-05T07:31:20;100693.72;;;25.15;51.57
4346;BME280;2186;49.866;7.986;2022-07-05T07:33:46;100696.19;;;25.07;50.71
4346;BME280;2186;49.866;7.986;2022-07-05T07:36:13;100699.41;;;25.12;49.96
4346;BME280;2186;49.866;7.986;2022-07-05T07:38:41;100693.69;;;25.69;48.75
4346;BME280;2186;49.866;7.986;2022-07-05T07:41:07;100692.81;;;25.69;48.18
4346;BME280;2186;49.866;7.986;2022-07-05T07:43:34;100700.13;;;25.25;49.77
4346;BME280;2186;49.866;7.986;2022-07-05T07:46:00;100701.22;;;25.66;48.50
4346;BME280;2186;49.866;7.986;2022-07-05T07:48:27;100702.59;;;25.60;48.17
4346;BME280;2186;49.866;7.986;2022-07-05T07:50:54;100692.84;;;26.11;47.39
4346;BME280;2186;49.866;7.986;2022-07-05T07:53:22;100699.75;;;26.36;46.85
4346;BME280;2186;49.866;7.986;2022-07-05T07:55:49;100708.44;;;26.50;47.07
4346;BME280;2186;49.866;7.986;2022-07-05T07:58:15;100702.03;;;26.61;45.59
4346;BME280;2186;49.866;7.986;2022-07-05T08:00:42;100713.13;;;26.18;45.21
4346;BME280;2186;49.866;7.986;2022-07-05T08:03:08;100704.31;;;25.73;46.55
4346;BME280;2186;49.866;7.986;2022-07-05T08:05:35;100695.41;;;26.54;46.20
4346;BME280;2186;49.866;7.986;2022-07-05T08:08:01;100696.72;;;26.60;45.85
4346;BME280;2186;49.866;7.986;2022-07-05T08:10:28;100697.06;;;26.76;44.69
4346;BME280;2186;49.866;7.986;2022-07-05T08:12:54;100695.22;;;26.76;44.60
4346;BME280;2186;49.866;7.986;2022-07-05T08:15:21;100699.03;;;26.64;44.85
4346;BME280;2186;49.866;7.986;2022-07-05T08:17:47;100698.66;;;26.78;45.33
4346;BME280;2186;49.866;7.986;2022-07-05T08:20:32;100699.50;;;26.18;45.25
4346;BME280;2186;49.866;7.986;2022-07-05T08:23:17;100692.66;;;26.54;44.33
4346;BME280;2186;49.866;7.986;2022-07-05T08:25:43;100690.72;;;26.66;44.16
4346;BME280;2186;49.866;7.986;2022-07-05T08:28:10;100688.06;;;26.54;45.07
4346;BME280;2186;49.866;7.986;2022-07-05T08:30:37;100678.59;;;26.28;42.94
4346;BME280;2186;49.866;7.986;2022-07-05T08:33:03;100687.94;;;26.96;43.72
4346;BME280;2186;49.866;7.986;2022-07-05T08:35:30;100686.44;;;27.23;42.08
4346;BME280;2186;49.866;7.986;2022-07-05T08:37:56;100682.63;;;27.44;41.01
4346;BME280;2186;49.866;7.986;2022-07-05T08:40:26;100677.22;;;27.04;43.77
4346;BME280;2186;49.866;7.986;2022-07-05T08:42:55;100682.56;;;26.75;44.10
4346;BME280;2186;49.866;7.986;2022-07-05T08:45:23;100674.28;;;26.96;43.99
4346;BME280;2186;49.866;7.986;2022-07-05T08:47:52;100683.81;;;27.71;40.72
4346;BME280;2186;49.866;7.986;2022-07-05T08:50:20;100681.31;;;27.58;40.44
4346;BME280;2186;49.866;7.986;2022-07-05T08:52:48;100677.44;;;27.61;40.13
4346;BME280;2186;49.866;7.986;2022-07-05T08:55:15;100676.66;;;26.70;42.12
4346;BME280;2186;49.866;7.986;2022-07-05T08:57:42;100669.81;;;26.76;41.15
4346;BME280;2186;49.866;7.986;2022-07-05T09:00:09;100677.63;;;26.60;42.27
4346;BME280;2186;49.866;7.986;2022-07-05T09:02:35;100679.66;;;27.07;43.62
4346;BME280;2186;49.866;7.986;2022-07-05T09:05:02;100667.69;;;26.99;43.09
4346;BME280;2186;49.866;7.986;2022-07-05T09:07:32;100677.56;;;27.50;41.81
4346;BME280;2186;49.866;7.986;2022-07-05T09:09:59;100681.75;;;27.44;42.17
4346;BME280;2186;49.866;7.986;2022-07-05T09:12:27;100679.16;;;27.52;40.85
4346;BME280;2186;49.866;7.986;2022-07-05T09:14:54;100669.84;;;27.64;40.81
4346;BME280;2186;49.866;7.986;2022-07-05T09:17:23;100658.03;;;28.49;39.50
4346;BME280;2186;49.866;7.986;2022-07-05T09:20:09;100673.78;;;28.38;41.11
4346;BME280;2186;49.866;7.986;2022-07-05T09:22:53;100668.72;;;28.43;40.66
4346;BME280;2186;49.866;7.986;2022-07-05T09:25:21;100669.03;;;28.30;40.79
4346;BME280;2186;49.866;7.986;2022-07-05T09:28:03;100665.22;;;28.50;40.84
4346;BME280;2186;49.866;7.986;2022-07-05T09:30:36;100666.31;;;28.67;38.91
4346;BME280;2186;49.866;7.986;2022-07-05T09:33:12;100650.97;;;28.47;37.61
4346;BME280;2186;49.866;7.986;2022-07-05T09:35:43;100661.34;;;28.80;38.01
4346;BME280;2186;49.866;7.986;2022-07-05T09:38:25;100663.22;;;28.52;39.22
4346;BME280;2186;49.866;7.986;2022-07-05T09:40:54;100651.06;;;28.27;38.14
4346;BME280;2186;49.866;7.986;2022-07-05T09:43:25;100666.25;;;28.77;37.23
4346;BME280;2186;49.866;7.986;2022-07-05T09:46:02;100658.81;;;28.22;38.02
4346;BME280;2186;49.866;7.986;2022-07-05T09:48:30;100667.06;;;28.13;38.80
4346;BME280;2186;49.866;7.986;2022-07-05T09:51:12;100667.38;;;27.90;38.35
4346;BME280;2186;49.866;7.986;2022-07-05T09:54:00;100664.38;;;27.74;37.56
4346;BME280;2186;49.866;7.986;2022-07-05T09:56:47;100663.94;;;27.88;37.93
4346;BME280;2186;49.866;7.986;2022-07-05T09:59:17;100669.09;;;28.57;37.65
4346;BME280;2186;49.866;7.986;2022-07-05T10:01:49;100661.78;;;28.48;37.22
4346;BME280;2186;49.866;7.986;2022-07-05T10:04:16;100670.13;;;28.47;36.70
4346;BME280;2186;49.866;7.986;2022-07-05T10:06:43;100664.94;;;28.81;35.46
4346;BME280;2186;49.866;7.986;2022-07-05T10:09:10;100667.88;;;28.23;35.04
4346;BME280;2186;49.866;7.986;2022-07-05T10:11:42;100671.72;;;28.77;34.34
4346;BME280;2186;49.866;7.986;2022-07-05T10:14:11;100666.53;;;28.46;34.53
4346;BME280;2186;49.866;7.986;2022-07-05T10:16:42;100678.16;;;27.92;35.59
4346;BME280;2186;49.866;7.986;2022-07-05T10:19:17;100663.28;;;28.33;34.68
4346;BME280;2186;49.866;7.986;2022-07-05T10:21:46;100672.88;;;28.74;32.91
4346;BME280;2186;49.866;7.986;2022-07-05T10:24:34;100659.13;;;28.29;32.65
4346;BME280;2186;49.866;7.986;2022-07-05T10:27:02;100665.97;;;28.80;33.12
4346;BME280;2186;49.866;7.986;2022-07-05T10:29:32;100664.00;;;29.00;31.84
4346;BME280;2186;49.866;7.986;2022-07-05T10:31:59;100653.81;;;28.27;33.22
4346;BME280;2186;49.866;7.986;2022-07-05T10:34:28;100662.13;;;29.00;32.35
4346;BME280;2186;49.866;7.986;2022-07-05T10:37:17;100661.25;;;28.72;32.68
4346;BME280;2186;49.866;7.986;2022-07-05T10:39:45;100664.38;;;29.05;32.85
4346;BME280;2186;49.866;7.986;2022-07-05T10:42:12;100662.56;;;29.41;32.37
4346;BME280;2186;49.866;7.986;2022-07-05T10:44:39;100658.44;;;29.55;31.29
4346;BME280;2186;49.866;7.986;2022-07-05T10:47:07;100653.41;;;29.68;31.92
4346;BME280;2186;49.866;7.986;2022-07-05T10:49:38;100644.53;;;29.92;32.28
4346;BME280;2186;49.866;7.986;2022-07-05T10:52:21;100647.19;;;30.27;31.63
4346;BME280;2186;49.866;7.986;2022-07-05T10:57:43;100651.78;;;29.75;33.34
4346;BME280;2186;49.866;7.986;2022-07-05T11:00:11;100648.81;;;29.05;33.98
4346;BME280;2186;49.866;7.986;2022-07-05T11:02:38;100647.44;;;29.19;33.90
4346;BME280;2186;49.866;7.986;2022-07-05T11:05:04;100647.16;;;29.75;33.31
4346;BME280;2186;49.866;7.986;2022-07-05T11:08:02;100649.19;;;29.56;32.97
4346;BME280;2186;49.866;7.986;2022-07-05T11:10:29;100639.72;;;28.50;33.65
4346;BME280;2186;49.866;7.986;2022-07-05T11:12:58;100641.00;;;28.93;33.31
4346;BME280;2186;49.866;7.986;2022-07-05T11:15:25;100638.31;;;29.64;30.78
4346;BME280;2186;49.866;7.986;2022-07-05T11:18:14;100639.78;;;29.58;31.38
4346;BME280;2186;49.866;7.986;2022-07-05T11:20:42;100639.31;;;29.81;30.12
4346;BME280;2186;49.866;7.986;2022-07-05T11:23:11;100638.03;;;29.93;29.84
4346;BME280;2186;49.866;7.986;2022-07-05T11:25:44;100636.72;;;29.43;30.61
4346;BME280;2186;49.866;7.986;2022-07-05T11:28:20;100635.28;;;29.49;30.88
4346;BME280;2186;49.866;7.986;2022-07-05T11:30:58;100631.84;;;29.91;31.06
4346;BME280;2186;49.866;7.986;2022-07-05T11:35:55;100618.56;;;30.04;29.18
4346;BME280;2186;49.866;7.986;2022-07-05T11:38:22;100619.88;;;30.44;29.34
4346;BME280;2186;49.866;7.986;2022-07-05T11:41:19;100616.78;;;29.95;29.15
4346;BME280;2186;49.866;7.986;2022-07-05T11:43:55;100610.34;;;29.78;29.43
4346;BME280;2186;49.866;7.986;2022-07-05T11:46:23;100621.91;;;29.90;29.91
4346;BME280;2186;49.866;7.986;2022-07-05T11:49:09;100622.63;;;30.18;29.20
4346;BME280;2186;49.866;7.986;2022-07-05T11:51:36;100623.50;;;30.18;29.11
4346;BME280;2186;49.866;7.986;2022-07-05T11:54:03;100615.53;;;30.67;28.51
4346;BME280;2186;49.866;7.986;2022-07-05T11:56:44;100614.91;;;30.89;26.79
4346;BME280;2186;49.866;7.986;2022-07-05T11:59:20;100611.41;;;30.63;27.87
4346;BME280;2186;49.866;7.986;2022-07-05T12:01:48;100612.38;;;30.62;27.53
4346;BME280;2186;49.866;7.986;2022-07-05T12:04:26;100602.97;;;30.04;28.57
4346;BME280;2186;49.866;7.986;2022-07-05T12:06:54;100607.31;;;30.41;28.71
4346;BME280;2186;49.866;7.986;2022-07-05T12:09:27;100608.66;;;30.37;29.88
4346;BME280;2186;49.866;7.986;2022-07-05T12:11:55;100597.81;;;30.27;29.02
4346;BME280;2186;49.866;7.986;2022-07-05T12:14:51;100595.44;;;30.32;29.23
4346;BME280;2186;49.866;7.986;2022-07-05T12:17:18;100599.69;;;30.61;28.21
4346;BME280;2186;49.866;7.986;2022-07-05T12:19:52;100595.50;;;29.89;28.14
4346;BME280;2186;49.866;7.986;2022-07-05T12:22:31;100580.59;;;30.43;27.54
4346;BME280;2186;49.866;7.986;2022-07-05T12:24:59;100588.44;;;30.38;27.69
4346;BME280;2186;49.866;7.986;2022-07-05T12:27:28;100594.91;;;30.03;28.56
4346;BME280;2186;49.866;7.986;2022-07-05T12:29:55;100603.34;;;30.35;28.15
4346;BME280;2186;49.866;7.986;2022-07-05T12:32:22;100585.75;;;30.54;27.09
4346;BME280;2186;49.866;7.986;2022-07-05T12:34:49;100585.28;;;30.59;26.29
4346;BME280;2186;49.866;7.986;2022-07-05T12:37:21;100584.94;;;30.28;26.38
4346;BME280;2186;49.866;7.986;2022-07-05T12:39:48;100589.97;;;30.32;27.10
4346;BME280;2186;49.866;7.986;2022-07-05T12:42:32;100581.16;;;29.95;26.36
4346;BME280;2186;49.866;7.986;2022-07-05T12:45:09;100578.66;;;30.35;26.47
4346;BME280;2186;49.866;7.986;2022-07-05T12:47:47;100575.34;;;30.24;26.97
4346;BME280;2186;49.866;7.986;2022-07-05T12:50:13;100568.06;;;30.06;26.97
4346;BME280;2186;49.866;7.986;2022-07-05T12:52:59;100559.72;;;30.16;27.12
4346;BME280;2186;49.866;7.986;2022-07-05T12:55:34;100558.78;;;30.42;27.25
4346;BME280;2186;49.866;7.986;2022-07-05T12:58:19;100551.75;;;30.39;26.22
4346;BME280;2186;49.866;7.986;2022-07-05T13:00:46;100547.06;;;30.23;27.04
4346;BME280;2186;49.866;7.986;2022-07-05T13:03:12;100547.91;;;30.24;27.38
4346;BME280;2186;49.866;7.986;2022-07-05T13:05:39;100555.19;;;30.07;27.73
4346;BME280;2186;49.866;7.986;2022-07-05T13:08:05;100549.56;;;30.08;27.87
4346;BME280;2186;49.866;7.986;2022-07-05T13:10:32;100550.16;;;30.28;28.33
4346;BME280;2186;49.866;7.986;2022-07-05T13:13:06;100557.50;;;29.94;29.17
4346;BME280;2186;49.866;7.986;2022-07-05T13:15:32;100557.72;;;29.74;29.87
4346;BME280;2186;49.866;7.986;2022-07-05T13:17:59;100554.38;;;30.15;29.65
4346;BME280;2186;49.866;7.986;2022-07-05T13:20:26;100561.69;;;30.40;29.18
4346;BME280;2186;49.866;7.986;2022-07-05T13:22:53;100568.59;;;30.10;28.70
4346;BME280;2186;49.866;7.986;2022-07-05T13:25:19;100557.94;;;30.07;28.49